Calhoun, Kentucky
Current Conditions -  °F | °C
As of 12:56 AM on Monday 22 Dec 2014 (Local Time) from KOWB Reporting Station
Overcast Overcast  
Wind Chill: 31°   Ceiling: 3700
Heat Index: 36°   Visibility: 10mi
Dew Point: 30°   Wind: 6mph
Humidity: 79%   Direction: 110°ESE
Pressure: 29.99"   Gusts: NA
Location:  37.54°N, 87.26°W
Report Text: KOWB 220656Z AUTO 11005KT 10SM BKN037 OVC095 02/M01 A2999 RMK AO2 TSNO T00221011 SLP158
Loading
Personal Weather Stations






























Interactive Weather Map New forecast layout! Learn more

10-Day Weather Forecast

Advertisements
Track Severe Weather on mobile